Terminal Aerodrome Forecast
Issued by NWS Charleston, WV

Home | Current Version | Previous Version | Text Only | Print | Product List | Glossary On
Versions: 1 2 3 4 5 6 7 8 9 10 11 12 13 14 15 16 17 18 19 20 21 22 23 24 25
616
FTUS41 KRLX 230524
TAFCRW
TAF
KCRW 230524Z 2306/2406 06005KT P6SM OVC040
     FM230730 06006KT 5SM -RA OVC035
     FM230900 04007KT 3SM -RA OVC023
     FM231100 02010KT 2SM -RA OVC010
     FM231500 03010G16KT 3SM -RA OVC013
     FM231900 01008KT 3SM -RA OVC010
     FM240100 34006KT 4SM -RA OVC008
     FM240300 34006KT P6SM OVC008=

USA.gov is the U.S. government's official web portal to all federal, state and local government web resources and services.